createdAt,value
2018-09-20T00:00:57.296Z,85.82
2018-09-20T00:03:25.829Z,84.96
2018-09-20T00:05:54.407Z,85.00
2018-09-20T00:08:23.875Z,85.96
2018-09-20T00:10:52.287Z,85.58
2018-09-20T00:13:20.751Z,85.32
2018-09-20T00:15:49.389Z,85.06
2018-09-20T00:18:17.848Z,84.60
2018-09-20T00:20:46.336Z,85.08
2018-09-20T00:23:14.854Z,85.37
2018-09-20T00:25:43.343Z,85.51
2018-09-20T00:28:11.874Z,85.26
2018-09-20T00:30:40.403Z,84.96
2018-09-20T00:33:09.682Z,85.53
2018-09-20T00:35:38.176Z,84.99
2018-09-20T00:38:06.732Z,85.68
2018-09-20T00:40:35.225Z,84.87
2018-09-20T00:43:03.676Z,84.18
2018-09-20T00:45:32.195Z,84.83
2018-09-20T00:48:01.342Z,86.23
2018-09-20T00:50:30.184Z,86.92
2018-09-20T00:52:58.615Z,86.10
2018-09-20T00:55:27.104Z,84.98
2018-09-20T00:57:55.784Z,85.52
2018-09-20T01:00:24.274Z,85.28
2018-09-20T01:02:53.152Z,85.59
2018-09-20T01:05:21.696Z,86.43
2018-09-20T01:07:50.232Z,86.28
2018-09-20T01:10:19.305Z,85.87
2018-09-20T01:12:47.840Z,87.26
2018-09-20T01:15:16.342Z,87.88
2018-09-20T01:17:44.803Z,88.43
2018-09-20T01:20:13.285Z,88.22
2018-09-20T01:22:42.637Z,87.46
2018-09-20T01:25:11.096Z,87.12
2018-09-20T01:27:39.675Z,86.50
2018-09-20T01:30:08.221Z,85.81
2018-09-20T01:32:36.668Z,85.48
2018-09-20T01:35:06.105Z,85.61
2018-09-20T01:37:34.828Z,85.89
2018-09-20T01:40:03.288Z,85.68
2018-09-20T01:42:31.831Z,86.24
2018-09-20T01:45:00.327Z,86.44
2018-09-20T01:47:28.762Z,85.77
2018-09-20T01:49:57.297Z,86.32
2018-09-20T01:52:25.746Z,86.01
2018-09-20T01:54:54.282Z,85.92
2018-09-20T01:57:23.551Z,85.78
2018-09-20T01:59:52.070Z,85.06
2018-09-20T02:02:21.528Z,85.08
2018-09-20T02:04:50.096Z,85.45
2018-09-20T02:07:18.564Z,85.45
2018-09-20T02:09:47.108Z,86.39
2018-09-20T02:12:15.531Z,86.63
2018-09-20T02:14:44.156Z,85.70
2018-09-20T02:17:12.619Z,85.73
2018-09-20T02:19:41.094Z,85.96
2018-09-20T02:22:09.688Z,86.21
2018-09-20T02:24:38.119Z,86.58
2018-09-20T02:27:06.888Z,86.75
2018-09-20T02:29:35.388Z,86.99
2018-09-20T02:32:03.949Z,86.32
2018-09-20T02:34:32.459Z,85.65
2018-09-20T02:37:00.987Z,86.28
2018-09-20T02:39:29.493Z,85.83
2018-09-20T02:41:58.926Z,85.85
2018-09-20T02:44:28.141Z,85.71
2018-09-20T02:46:56.709Z,85.41
2018-09-20T02:49:27.127Z,85.83
2018-09-20T02:51:55.638Z,85.92
2018-09-20T02:54:24.318Z,85.03
2018-09-20T02:56:52.858Z,85.60
2018-09-20T02:59:21.412Z,85.56
2018-09-20T03:01:50.325Z,85.35
2018-09-20T03:04:19.410Z,84.96
2018-09-20T03:06:48.015Z,85.05
2018-09-20T03:09:18.886Z,84.33
2018-09-20T03:11:47.340Z,85.02
2018-09-20T03:14:15.900Z,85.07
2018-09-20T03:16:45.199Z,84.55
2018-09-20T03:19:13.739Z,84.93
2018-09-20T03:21:42.208Z,85.04
2018-09-20T03:24:11.462Z,84.92
2018-09-20T03:26:40.076Z,85.66
2018-09-20T03:29:08.564Z,85.75
2018-09-20T03:31:37.541Z,85.57
2018-09-20T03:34:06.069Z,85.88
2018-09-20T03:36:34.625Z,86.09
2018-09-20T03:39:03.392Z,86.82
2018-09-20T03:41:32.099Z,87.15
2018-09-20T03:44:00.611Z,86.71
2018-09-20T03:46:29.354Z,85.89
2018-09-20T03:48:57.960Z,86.37
2018-09-20T03:51:26.527Z,86.64
2018-09-20T03:53:55.081Z,87.06
2018-09-20T03:56:23.593Z,87.32
2018-09-20T03:58:52.168Z,86.42
2018-09-20T04:01:20.677Z,89.39
2018-09-20T04:03:49.253Z,91.11
2018-09-20T04:06:17.763Z,89.74
2018-09-20T04:08:46.329Z,89.18
2018-09-20T04:11:14.830Z,90.02
2018-09-20T04:13:43.372Z,90.33
2018-09-20T04:16:12.083Z,90.01
2018-09-20T04:18:41.081Z,89.96
2018-09-20T04:21:09.680Z,89.31
2018-09-20T04:23:38.410Z,88.23
2018-09-20T04:26:07.260Z,86.93
2018-09-20T04:28:35.793Z,87.25
2018-09-20T04:31:04.391Z,86.69
2018-09-20T04:33:32.913Z,86.07
2018-09-20T04:36:01.512Z,85.50
2018-09-20T04:38:30.085Z,84.94
2018-09-20T04:40:58.752Z,85.43
2018-09-20T04:43:27.380Z,85.27
2018-09-20T04:45:55.915Z,85.57
2018-09-20T04:48:24.613Z,86.03
2018-09-20T04:50:53.256Z,86.14
2018-09-20T04:53:21.900Z,85.69
2018-09-20T04:55:50.465Z,85.38
2018-09-20T04:58:19.572Z,85.91
2018-09-20T05:00:48.096Z,85.72
2018-09-20T05:05:59.827Z,87.26
2018-09-20T05:08:28.913Z,87.11
2018-09-20T05:10:57.463Z,88.29
2018-09-20T05:13:26.469Z,87.79
2018-09-20T05:15:55.094Z,86.86
2018-09-20T05:18:23.680Z,85.53
2018-09-20T05:20:52.512Z,85.19
2018-09-20T05:23:21.054Z,86.66
2018-09-20T05:25:49.563Z,87.52
2018-09-20T05:28:18.215Z,86.96
2018-09-20T05:30:47.771Z,86.79
2018-09-20T05:33:16.340Z,86.77
2018-09-20T05:35:44.943Z,86.62
2018-09-20T05:38:13.472Z,86.67
2018-09-20T05:40:42.071Z,85.62
2018-09-20T05:43:10.594Z,86.25
2018-09-20T05:45:39.194Z,85.62
2018-09-20T05:48:08.419Z,86.84
2018-09-20T05:50:37.269Z,85.85
2018-09-20T05:53:06.990Z,87.03
2018-09-20T05:55:35.621Z,86.23
2018-09-20T05:58:04.254Z,86.77
2018-09-20T06:00:33.419Z,85.33
2018-09-20T06:03:02.188Z,86.76
2018-09-20T06:05:30.969Z,86.88
2018-09-20T06:07:59.699Z,87.31
2018-09-20T06:10:28.257Z,87.24
2018-09-20T06:12:56.902Z,87.78
2018-09-20T06:15:25.503Z,86.28
2018-09-20T06:17:54.046Z,87.54
2018-09-20T06:20:22.609Z,86.14
2018-09-20T06:22:51.172Z,86.12
2018-09-20T06:25:19.680Z,85.25
2018-09-20T06:27:51.173Z,85.03
2018-09-20T06:30:19.730Z,84.58
2018-09-20T06:32:48.464Z,83.43
2018-09-20T06:35:17.226Z,81.36
2018-09-20T06:37:45.777Z,83.55
2018-09-20T06:40:14.330Z,81.57
2018-09-20T06:42:42.850Z,83.31
2018-09-20T06:45:11.366Z,82.39
2018-09-20T06:47:39.882Z,80.35
2018-09-20T06:50:09.152Z,79.25
2018-09-20T06:52:37.687Z,77.67
2018-09-20T06:55:06.215Z,79.37
2018-09-20T06:57:34.632Z,75.81
2018-09-20T07:00:34.004Z,75.56
2018-09-20T07:03:03.172Z,75.88
2018-09-20T07:05:31.568Z,73.28
2018-09-20T07:08:00.003Z,72.92
2018-09-20T07:10:28.523Z,72.82
2018-09-20T07:12:56.939Z,72.64
2018-09-20T07:15:25.480Z,70.72
2018-09-20T07:17:54.107Z,70.05
2018-09-20T07:20:22.589Z,69.63
2018-09-20T07:22:51.036Z,68.22
2018-09-20T07:25:19.801Z,67.60
2018-09-20T07:27:48.171Z,68.50
2018-09-20T07:30:16.626Z,66.70
2018-09-20T07:32:45.095Z,65.18
2018-09-20T07:35:13.478Z,65.44
2018-09-20T07:37:41.976Z,65.12
2018-09-20T07:40:11.153Z,63.52
2018-09-20T07:42:39.547Z,61.73
2018-09-20T07:45:08.044Z,59.74
2018-09-20T07:47:36.529Z,60.21
2018-09-20T07:50:05.024Z,58.76
2018-09-20T07:52:33.708Z,56.43
2018-09-20T07:55:02.416Z,56.95
2018-09-20T07:57:31.356Z,56.49
2018-09-20T08:00:01.328Z,57.39
2018-09-20T08:02:29.815Z,56.64
2018-09-20T08:04:58.882Z,56.30
2018-09-20T08:07:27.634Z,53.64
2018-09-20T08:09:56.106Z,54.70
2018-09-20T08:12:25.018Z,53.53
2018-09-20T08:14:53.489Z,52.98
2018-09-20T08:17:21.983Z,53.35
2018-09-20T08:19:50.466Z,54.25
2018-09-20T08:22:18.902Z,52.36
2018-09-20T08:24:47.442Z,51.96
2018-09-20T08:27:15.884Z,50.58
2018-09-20T08:29:44.725Z,50.29
2018-09-20T08:32:13.264Z,51.99
2018-09-20T08:34:41.769Z,50.34
2018-09-20T08:37:11.125Z,51.08
2018-09-20T08:39:39.607Z,50.59
2018-09-20T08:42:08.228Z,50.36
2018-09-20T08:44:36.683Z,49.17
2018-09-20T08:47:05.309Z,50.58
2018-09-20T08:49:33.882Z,49.06
2018-09-20T08:52:02.387Z,49.61
2018-09-20T08:54:30.908Z,48.98
2018-09-20T08:56:59.460Z,50.10
2018-09-20T08:59:28.733Z,48.71
2018-09-20T09:01:57.180Z,47.95
2018-09-20T09:04:25.638Z,47.61
2018-09-20T09:06:54.116Z,46.67
2018-09-20T09:09:22.539Z,46.90
2018-09-20T09:11:52.019Z,46.16
2018-09-20T09:14:20.504Z,46.54
2018-09-20T09:16:49.020Z,45.15
2018-09-20T09:19:18.386Z,44.15
2018-09-20T09:21:46.834Z,44.33
2018-09-20T09:24:15.281Z,44.80
2018-09-20T09:26:43.896Z,43.85
2018-09-20T09:29:12.398Z,42.63
2018-09-20T09:31:40.904Z,42.70
2018-09-20T09:34:09.579Z,42.16
2018-09-20T09:36:38.085Z,41.68
2018-09-20T09:39:09.343Z,41.28
2018-09-20T09:41:37.844Z,40.44
2018-09-20T09:44:06.504Z,40.65
2018-09-20T09:46:34.965Z,41.02
2018-09-20T09:49:04.196Z,43.42
2018-09-20T09:51:32.698Z,44.76
2018-09-20T09:54:01.319Z,42.73
2018-09-20T09:56:30.037Z,42.09
2018-09-20T09:58:59.796Z,44.15
2018-09-20T10:01:28.259Z,41.67
2018-09-20T10:03:57.459Z,39.96
2018-09-20T10:06:26.042Z,41.57
2018-09-20T10:08:55.597Z,40.95
2018-09-20T10:11:24.168Z,41.90
2018-09-20T10:13:52.663Z,40.54
2018-09-20T10:16:21.095Z,40.56
2018-09-20T10:18:49.729Z,40.92
2018-09-20T10:21:18.196Z,36.75
2018-09-20T10:23:46.744Z,39.18
2018-09-20T10:26:15.162Z,37.12
2018-09-20T10:28:43.672Z,36.53
2018-09-20T10:31:12.122Z,38.78
2018-09-20T10:33:40.636Z,40.26
2018-09-20T10:36:09.234Z,38.64
2018-09-20T10:38:37.712Z,39.43
2018-09-20T10:41:06.300Z,38.64
2018-09-20T10:43:34.809Z,40.66
2018-09-20T10:46:03.299Z,40.72
2018-09-20T10:48:31.880Z,39.47
2018-09-20T10:51:00.357Z,39.72
2018-09-20T10:53:28.876Z,37.40
2018-09-20T10:55:57.308Z,37.01
2018-09-20T10:58:25.824Z,35.70
2018-09-20T11:00:54.309Z,37.68
2018-09-20T11:03:23.669Z,35.50
2018-09-20T11:05:52.078Z,34.91
2018-09-20T11:08:20.565Z,34.96
2018-09-20T11:10:49.101Z,39.29
2018-09-20T11:13:17.558Z,37.71
2018-09-20T11:15:46.057Z,39.31
2018-09-20T11:18:14.530Z,36.96
2018-09-20T11:20:43.576Z,35.26
2018-09-20T11:23:12.044Z,33.94
2018-09-20T11:25:40.512Z,35.61
2018-09-20T11:28:08.952Z,36.65
2018-09-20T11:30:37.392Z,36.57
2018-09-20T11:33:05.917Z,36.05
2018-09-20T11:35:34.332Z,36.48
2018-09-20T11:38:02.748Z,35.86
2018-09-20T11:40:31.261Z,36.37
2018-09-20T11:42:59.659Z,37.20
2018-09-20T11:45:28.090Z,39.39
2018-09-20T11:47:56.636Z,39.42
2018-09-20T11:50:25.091Z,37.04
2018-09-20T11:52:53.608Z,37.18
2018-09-20T11:55:22.062Z,38.86
2018-09-20T11:57:51.407Z,36.69
2018-09-20T12:00:20.831Z,36.32
2018-09-20T12:02:50.259Z,37.28
2018-09-20T12:05:19.009Z,37.78
2018-09-20T12:07:47.463Z,36.14
2018-09-20T12:10:16.201Z,36.76
2018-09-20T12:12:44.615Z,37.78
2018-09-20T12:15:13.126Z,36.79
2018-09-20T12:17:41.567Z,37.19
2018-09-20T12:20:11.349Z,36.11
2018-09-20T12:22:39.784Z,37.16
2018-09-20T12:25:08.292Z,39.96
2018-09-20T12:27:36.993Z,38.33
2018-09-20T12:30:06.085Z,36.78
2018-09-20T12:32:34.507Z,40.02
2018-09-20T12:35:03.183Z,39.60
2018-09-20T12:37:38.097Z,38.54
2018-09-20T12:40:07.914Z,38.01
2018-09-20T12:42:36.350Z,37.16
2018-09-20T12:45:05.137Z,38.75
2018-09-20T12:47:34.435Z,38.47
2018-09-20T12:50:02.954Z,39.75
2018-09-20T12:52:32.252Z,36.75
2018-09-20T12:55:00.733Z,37.93
2018-09-20T12:57:29.292Z,36.94
2018-09-20T12:59:57.979Z,37.24
2018-09-20T13:02:26.569Z,37.78
2018-09-20T13:04:55.101Z,37.22
2018-09-20T13:07:23.583Z,37.84
2018-09-20T13:09:52.076Z,38.00
2018-09-20T13:12:20.846Z,38.53
2018-09-20T13:14:49.522Z,38.85
2018-09-20T13:17:17.986Z,38.53
2018-09-20T13:19:46.418Z,39.64
2018-09-20T13:22:14.873Z,37.98
2018-09-20T13:24:43.388Z,38.46
2018-09-20T13:27:12.220Z,38.21
2018-09-20T13:29:41.432Z,38.09
2018-09-20T13:32:10.821Z,39.10
2018-09-20T13:34:39.301Z,38.63
2018-09-20T13:37:07.762Z,38.92
2018-09-20T13:39:36.230Z,39.18
2018-09-20T13:42:04.664Z,39.92
2018-09-20T13:44:33.140Z,39.64
2018-09-20T13:47:01.660Z,40.00
2018-09-20T13:49:30.779Z,40.37
2018-09-20T13:51:59.191Z,41.26
2018-09-20T13:54:27.657Z,41.51
2018-09-20T13:56:56.120Z,40.63
2018-09-20T13:59:24.613Z,40.54
2018-09-20T14:01:53.110Z,41.21
2018-09-20T14:04:21.608Z,40.98
2018-09-20T14:06:50.418Z,41.08
2018-09-20T14:09:18.883Z,40.97
2018-09-20T14:11:47.520Z,40.22
2018-09-20T14:14:15.917Z,40.73
2018-09-20T14:16:45.576Z,40.21
2018-09-20T14:19:14.090Z,41.42
2018-09-20T14:21:43.214Z,41.21
2018-09-20T14:24:12.575Z,40.51
2018-09-20T14:26:41.044Z,40.50
2018-09-20T14:29:09.547Z,40.09
2018-09-20T14:31:38.079Z,41.18
2018-09-20T14:34:07.155Z,41.40
2018-09-20T14:36:35.690Z,41.74
2018-09-20T14:39:04.800Z,41.63
2018-09-20T14:41:33.260Z,41.94
2018-09-20T14:44:01.752Z,42.64
2018-09-20T14:46:30.300Z,42.39
2018-09-20T14:48:58.751Z,42.13
2018-09-20T14:51:27.437Z,42.41
2018-09-20T14:53:56.084Z,41.46
2018-09-20T14:56:24.662Z,41.34
2018-09-20T14:58:53.322Z,41.87
2018-09-20T15:01:21.843Z,42.16
2018-09-20T15:03:50.363Z,42.13
2018-09-20T15:06:18.910Z,42.76
2018-09-20T15:08:47.355Z,42.70
2018-09-20T15:11:16.420Z,43.06
2018-09-20T15:13:44.876Z,43.05
2018-09-20T15:16:13.317Z,42.74
2018-09-20T15:18:41.788Z,43.72
2018-09-20T15:21:10.316Z,43.43
2018-09-20T15:23:38.800Z,43.81
2018-09-20T15:26:08.021Z,43.70
2018-09-20T15:28:36.466Z,43.95
2018-09-20T15:31:04.970Z,44.07
2018-09-20T15:33:33.413Z,44.02
2018-09-20T15:36:01.875Z,43.68
2018-09-20T15:38:30.684Z,43.96
2018-09-20T15:40:59.836Z,43.17
2018-09-20T15:43:28.255Z,43.06
2018-09-20T15:45:56.768Z,43.82
2018-09-20T15:48:25.192Z,44.00
2018-09-20T15:50:54.119Z,44.00
2018-09-20T15:53:22.534Z,43.50
2018-09-20T15:55:51.173Z,45.03
2018-09-20T15:58:19.691Z,44.86
2018-09-20T16:00:48.595Z,45.11
2018-09-20T16:03:17.038Z,44.29
2018-09-20T16:05:45.592Z,44.76
2018-09-20T16:08:14.024Z,44.96
2018-09-20T16:10:43.313Z,45.07
2018-09-20T16:13:11.793Z,44.45
2018-09-20T16:15:40.263Z,44.77
2018-09-20T16:18:08.686Z,44.49
2018-09-20T16:20:37.182Z,45.19
2018-09-20T16:23:05.568Z,44.67
2018-09-20T16:25:35.069Z,45.72
2018-09-20T16:28:10.608Z,45.52
2018-09-20T16:31:53.057Z,44.87
2018-09-20T16:35:32.487Z,45.74
2018-09-20T16:38:11.616Z,45.95
2018-09-20T16:40:42.975Z,46.17
2018-09-20T16:43:11.496Z,46.81
2018-09-20T16:45:40.644Z,46.48
2018-09-20T16:48:09.796Z,46.89
2018-09-20T16:50:38.233Z,46.95
2018-09-20T16:53:06.744Z,47.68
2018-09-20T16:55:35.182Z,48.96
2018-09-20T16:58:03.634Z,49.11
2018-09-20T17:00:32.618Z,48.90
2018-09-20T17:03:01.084Z,49.19
2018-09-20T17:05:30.191Z,49.77
2018-09-20T17:07:58.647Z,50.27
2018-09-20T17:10:27.081Z,51.25
2018-09-20T17:12:55.575Z,51.78
2018-09-20T17:15:24.045Z,52.38
2018-09-20T17:17:52.653Z,53.25
2018-09-20T17:20:21.079Z,54.22
2018-09-20T17:22:51.313Z,54.99
2018-09-20T17:25:19.736Z,55.33
2018-09-20T17:27:48.190Z,55.79
2018-09-20T17:30:16.674Z,56.07
2018-09-20T17:32:45.112Z,56.52
2018-09-20T17:35:13.856Z,56.03
2018-09-20T17:37:43.476Z,56.90
2018-09-20T17:40:12.367Z,56.76
2018-09-20T17:42:41.644Z,57.82
2018-09-20T17:45:10.156Z,57.65
2018-09-20T17:47:38.639Z,58.75
2018-09-20T17:50:07.115Z,59.19
2018-09-20T17:52:36.096Z,61.34
2018-09-20T17:55:05.044Z,62.76
2018-09-20T17:57:35.661Z,62.59
2018-09-20T18:00:04.905Z,62.63
2018-09-20T18:02:33.489Z,63.53
2018-09-20T18:05:05.221Z,63.71
2018-09-20T18:07:33.912Z,64.59
2018-09-20T18:10:02.459Z,64.53
2018-09-20T18:12:31.491Z,65.76
2018-09-20T18:15:00.589Z,66.06
2018-09-20T18:17:29.244Z,66.80
2018-09-20T18:19:57.687Z,67.63
2018-09-20T18:22:26.172Z,67.41
2018-09-20T18:24:54.699Z,67.65
2018-09-20T18:27:23.191Z,68.35
2018-09-20T18:29:51.624Z,68.50
2018-09-20T18:32:20.040Z,68.91
2018-09-20T18:34:49.448Z,69.51
2018-09-20T18:37:17.918Z,70.44
2018-09-20T18:39:46.330Z,70.69
2018-09-20T18:42:14.835Z,70.09
2018-09-20T18:44:43.368Z,69.94
2018-09-20T18:47:12.473Z,70.38
2018-09-20T18:49:40.972Z,70.87
2018-09-20T18:52:09.436Z,70.81
2018-09-20T18:54:37.879Z,71.85
2018-09-20T18:57:06.325Z,71.57
2018-09-20T18:59:34.756Z,72.21
2018-09-20T19:02:03.199Z,72.12
2018-09-20T19:04:31.827Z,72.41
2018-09-20T19:07:01.119Z,73.05
2018-09-20T19:09:30.043Z,73.42
2018-09-20T19:11:58.661Z,72.83
2018-09-20T19:14:27.112Z,72.97
2018-09-20T19:16:55.580Z,72.81
2018-09-20T19:19:24.327Z,73.48
2018-09-20T19:21:52.880Z,73.46
2018-09-20T19:24:21.408Z,74.36
2018-09-20T19:26:50.808Z,73.91
2018-09-20T19:29:19.263Z,74.75
2018-09-20T19:31:47.721Z,75.49
2018-09-20T19:34:16.291Z,75.60
2018-09-20T19:36:45.500Z,75.41
2018-09-20T19:39:14.099Z,75.55
2018-09-20T19:41:42.551Z,76.30
2018-09-20T19:44:11.114Z,76.48
2018-09-20T19:46:39.968Z,75.85
2018-09-20T19:49:08.401Z,76.24
2018-09-20T19:51:36.867Z,76.93
2018-09-20T19:54:06.166Z,76.02
2018-09-20T19:56:35.086Z,78.30
2018-09-20T19:59:03.499Z,77.72
2018-09-20T20:01:32.035Z,77.60
2018-09-20T20:04:00.500Z,78.08
2018-09-20T20:06:28.968Z,78.64
2018-09-20T20:08:57.449Z,79.00
2018-09-20T20:11:25.919Z,78.35
2018-09-20T20:13:55.283Z,78.31
2018-09-20T20:16:24.120Z,78.47
2018-09-20T20:18:52.528Z,78.60
2018-09-20T20:21:20.952Z,79.03
2018-09-20T20:23:49.412Z,78.99
2018-09-20T20:26:17.871Z,78.79
2018-09-20T20:28:46.371Z,78.30
2018-09-20T20:31:14.795Z,78.95
2018-09-20T20:33:43.244Z,79.40
2018-09-20T20:36:11.720Z,80.51
2018-09-20T20:38:40.140Z,79.13
2018-09-20T20:41:08.586Z,78.86
2018-09-20T20:43:36.999Z,79.81
2018-09-20T20:46:05.471Z,80.34
2018-09-20T20:48:33.877Z,79.31
2018-09-20T20:51:02.305Z,79.43
2018-09-20T20:53:30.734Z,79.84
2018-09-20T20:55:59.167Z,79.62
2018-09-20T20:58:27.623Z,79.68
2018-09-20T21:00:56.103Z,80.02
2018-09-20T21:03:24.541Z,80.39
2018-09-20T21:05:53.963Z,80.22
2018-09-20T21:08:22.578Z,79.43
2018-09-20T21:10:51.111Z,80.41
2018-09-20T21:13:19.529Z,80.77
2018-09-20T21:15:48.025Z,80.44
2018-09-20T21:18:16.500Z,80.79
2018-09-20T21:20:45.021Z,81.10
2018-09-20T21:23:13.829Z,81.33
2018-09-20T21:25:42.900Z,81.26
2018-09-20T21:28:11.392Z,81.15
2018-09-20T21:30:39.868Z,81.31
2018-09-20T21:33:08.319Z,80.82
2018-09-20T21:35:36.796Z,81.86
2018-09-20T21:38:05.384Z,82.07
2018-09-20T21:40:33.834Z,82.07
2018-09-20T21:43:02.311Z,82.48
2018-09-20T21:45:30.788Z,82.56
2018-09-20T21:47:59.277Z,82.94
2018-09-20T21:50:27.891Z,83.04
2018-09-20T21:52:56.300Z,82.55
2018-09-20T21:55:24.834Z,82.55
2018-09-20T21:57:53.319Z,82.58
2018-09-20T22:00:21.923Z,82.97
2018-09-20T22:02:55.664Z,82.39
2018-09-20T22:05:24.321Z,82.75
2018-09-20T22:07:53.025Z,82.99
2018-09-20T22:10:22.049Z,82.64
2018-09-20T22:12:50.498Z,82.89
2018-09-20T22:15:25.611Z,82.35
2018-09-20T22:17:55.312Z,83.09
2018-09-20T22:20:24.995Z,82.58
2018-09-20T22:22:53.591Z,82.24
2018-09-20T22:25:22.167Z,82.85
2018-09-20T22:27:50.618Z,82.50
2018-09-20T22:30:20.181Z,82.30
2018-09-20T22:32:48.866Z,82.68
2018-09-20T22:35:17.393Z,82.69
2018-09-20T22:37:46.585Z,82.38
2018-09-20T22:40:15.013Z,83.22
2018-09-20T22:42:43.477Z,83.89
2018-09-20T22:45:12.310Z,83.76
2018-09-20T22:47:40.800Z,83.30
2018-09-20T22:50:09.241Z,83.49
2018-09-20T22:52:37.690Z,82.94
2018-09-20T22:55:08.753Z,83.32
2018-09-20T22:57:37.197Z,83.81
2018-09-20T23:00:05.672Z,83.61
2018-09-20T23:02:34.092Z,83.48
2018-09-20T23:05:02.588Z,83.93
2018-09-20T23:07:31.091Z,83.35
2018-09-20T23:09:59.499Z,83.28
2018-09-20T23:12:28.027Z,83.33
2018-09-20T23:14:56.618Z,83.99
2018-09-20T23:17:25.364Z,83.84
2018-09-20T23:19:53.982Z,82.81
2018-09-20T23:22:22.472Z,83.90
2018-09-20T23:24:50.907Z,83.54
2018-09-20T23:27:19.356Z,84.26
2018-09-20T23:29:47.790Z,84.00
2018-09-20T23:32:16.307Z,84.86
2018-09-20T23:34:45.313Z,83.69
2018-09-20T23:37:13.788Z,84.25
2018-09-20T23:39:42.214Z,84.01
2018-09-20T23:42:10.724Z,83.78
2018-09-20T23:44:39.209Z,83.83
2018-09-20T23:47:08.486Z,84.72
2018-09-20T23:49:37.051Z,84.48
2018-09-20T23:52:05.556Z,85.02
2018-09-20T23:54:34.740Z,84.42
2018-09-20T23:57:03.260Z,83.85
2018-09-20T23:59:31.874Z,84.37
